Airfield :
LOGIN :

Register | Disclaimer

   EN    FR    IT 

 










Legend :    VFR   Marginal VFR   IFR   Intensive IFR   Very Intensive IFR
Visi :
Ceiling :
>= 8 km
>= 3000ft
5 to 8 km
1000 to 3000 ft
1500m to 5 km
500 to 1000 ft
800 to 1500m
200 to 500 ft
< 800m
< 200 ft
Symbols :   Thunderstorms  Fog  Heavy snow  Heavy precipitations  Wind > 20 kt
SIGMETs :     Misc.  Thunderstorms  Icing  Turbulence  Mountain Waves  Volcanic Ashes







- Airport Elevation : 142 ft
- IATA code : ALC


LEAL - Alicante

CURRENT METAR :
  • 200730Z 05005KT 020V100 9999 FEW018 19/12 Q1013 NOSIG

EXPIRED METARs :
  • 200700Z 02006KT 350V060 9999 FEW015 19/11 Q1012 NOSIG
  • 200630Z 01006KT 350V050 9999 FEW020 18/09 Q1012 NOSIG
  • 200600Z 35003KT 260V040 9999 FEW020 17/11 Q1012 NOSIG
  • 200530Z 35004KT 320V050 CAVOK 16/11 Q1012 NOSIG
  • 200500Z 31003KT 270V350 CAVOK 14/11 Q1011 NOSIG

TAF TAF LEAL
Valid from the 20 at 06:00 until the 21 at 06:00 UTC


200500Z 2006/2106 36005KT 9999 FEW030 TX22/2013Z TN13/2006Z
BECMG 2006/2008 08011KT
BECMG 2019/2021 35005KT
No reported NOTAMs for that airfield.



MET'MAP, your aeronautical weather chart ! - Copyright ORBIFLY December 2007 - Disclaimer

ORBIFLY MET'MAP TEAM :

Programming & Development : Alexandra Zaïnal
Concept & Development : Baudouin d'Aumeries
Co-Development & Prog : Marc-Olivier Méhu
Technical & hardware support : Manuel Goepfert

Contact : metmap@orbifly.com




SOURCES & CREDITS :

   NOAA